Time;durP1;ratioP1;P1;durP2;ratioP2;P2;SDS_P1;SDS_P2;PMS_P1;PMS_P2;Temp;Humidity;BMP_temperature;BMP_pressure;BME280_temperature;BME280_humidity;BME280_pressure;Samples;Min_cycle;Max_cycle;Signal;HPM_P1;HPM_P2
2023/04/10 00:08:32;;;;;;;18.33;14.25;;;;;;;20.31;43.26;101881.34;20633274;28;20065;-70
2023/04/10 00:18:34;;;;;;;18.58;15.30;;;;;;;20.27;42.87;101861.84;20647177;28;20097;-70
2023/04/10 00:28:37;;;;;;;19.05;17.00;;;;;;;20.26;42.93;101883.56;20649413;28;20069;-70
2023/04/10 00:38:38;;;;;;;18.67;16.10;;;;;;;20.23;42.62;101854.09;20639255;28;20042;-70
2023/04/10 00:48:40;;;;;;;21.05;17.23;;;;;;;20.10;42.75;101830.81;20641115;28;20050;-69
2023/04/10 00:58:42;;;;;;;21.27;17.08;;;;;;;20.20;42.49;101824.63;20642880;28;20415;-70
2023/04/10 01:08:50;;;;;;;18.75;16.63;;;;;;;20.16;42.35;101797.00;20642696;28;20054;-70
2023/04/10 01:18:54;;;;;;;22.73;18.02;;;;;;;20.14;42.31;101801.69;20634820;28;20516;-70
2023/04/10 01:29:00;;;;;;;19.77;17.30;;;;;;;20.15;42.35;101781.78;20625910;28;20418;-70
2023/04/10 01:39:03;;;;;;;20.42;17.25;;;;;;;20.18;42.43;101776.09;20659412;28;20380;-70
2023/04/10 01:49:06;;;;;;;23.35;19.10;;;;;;;20.20;42.19;101773.25;20657023;28;20424;-70
2023/04/10 01:59:07;;;;;;;23.15;19.52;;;;;;;20.19;42.20;101763.41;20656086;28;20078;-70
2023/04/10 02:09:16;;;;;;;24.85;20.38;;;;;;;20.20;42.08;101759.72;20636682;28;20084;-69
2023/04/10 02:19:20;;;;;;;23.70;20.67;;;;;;;20.18;41.74;101750.91;20636068;28;20503;-70
2023/04/10 02:29:21;;;;;;;21.70;19.35;;;;;;;20.11;41.79;101729.78;20653584;28;20058;-70
2023/04/10 02:39:23;;;;;;;23.42;19.30;;;;;;;20.14;41.60;101726.81;20654807;28;20561;-70
2023/04/10 02:49:26;;;;;;;22.45;18.60;;;;;;;20.13;41.37;101714.31;20652436;28;20048;-70
2023/04/10 02:59:27;;;;;;;27.48;21.42;;;;;;;20.09;41.24;101710.16;20654085;28;20422;-70
2023/04/10 03:09:29;;;;;;;26.63;21.08;;;;;;;20.07;41.24;101711.25;20636236;28;20055;-70
2023/04/10 03:19:31;;;;;;;24.08;19.75;;;;;;;20.04;41.16;101706.97;20650974;28;20120;-69
2023/04/10 03:29:33;;;;;;;25.40;21.65;;;;;;;20.03;40.78;101699.88;20650708;28;20555;-70
2023/04/10 03:39:36;;;;;;;25.75;20.90;;;;;;;20.02;41.13;101708.97;20650546;28;20058;-69
2023/04/10 03:49:40;;;;;;;24.75;20.17;;;;;;;20.02;40.91;101706.25;20647867;28;20111;-70
2023/04/10 03:59:44;;;;;;;23.85;20.00;;;;;;;20.03;41.07;101699.88;20643303;28;20034;-70
2023/04/10 04:09:47;;;;;;;23.42;19.65;;;;;;;20.04;40.95;101706.97;20644655;28;20058;-70
2023/04/10 04:20:10;;;;;;;24.38;21.45;;;;;;;20.04;40.93;101688.06;20656871;28;20046;-70
2023/04/10 04:30:23;;;;;;;22.65;19.85;;;;;;;20.05;40.87;101670.84;20656044;28;20056;-70
2023/04/10 04:40:42;;;;;;;23.65;19.55;;;;;;;20.05;40.85;101665.44;20627107;28;20467;-70
2023/04/10 04:50:57;;;;;;;22.13;19.50;;;;;;;20.08;40.69;101653.50;20641363;28;20166;-70
2023/04/10 05:01:32;;;;;;;23.20;19.43;;;;;;;20.10;40.71;101647.00;20639250;28;20054;-70
2023/04/10 05:12:07;;;;;;;25.30;20.88;;;;;;;20.12;40.51;101642.31;20644057;28;20042;-70
2023/04/10 05:22:23;;;;;;;23.27;18.67;;;;;;;20.09;40.39;101634.47;20653082;28;20089;-70
2023/04/10 05:32:45;;;;;;;22.30;19.67;;;;;;;20.16;40.46;101633.94;20654347;28;20133;-70
2023/04/10 05:43:00;;;;;;;25.63;21.13;;;;;;;20.19;40.34;101639.94;20652716;28;20062;-70
2023/04/10 05:53:31;;;;;;;24.80;21.33;;;;;;;20.22;40.17;101655.00;20652177;28;20047;-70
2023/04/10 06:03:38;;;;;;;26.92;22.17;;;;;;;20.28;40.25;101639.13;20647582;28;20049;-70
2023/04/10 06:13:40;;;;;;;27.23;23.55;;;;;;;20.39;40.08;101613.84;20651563;28;20046;-70
2023/04/10 06:23:42;;;;;;;26.90;22.40;;;;;;;20.46;40.16;101616.00;20647828;28;20054;-69
2023/04/10 06:33:44;;;;;;;28.33;23.45;;;;;;;20.54;40.30;101613.47;20649062;28;20048;-69
2023/04/10 06:43:46;;;;;;;26.10;20.35;;;;;;;20.58;40.77;101604.97;20638401;28;20082;-68
2023/04/10 06:53:48;;;;;;;23.75;20.80;;;;;;;20.66;41.34;101579.91;20638409;28;20044;-68
2023/04/10 07:03:50;;;;;;;25.48;21.45;;;;;;;20.73;41.39;101572.94;20617955;28;20557;-67
2023/04/10 07:13:56;;;;;;;23.05;20.08;;;;;;;20.77;41.41;101556.41;20634851;28;20134;-69
2023/04/10 07:23:58;;;;;;;22.75;18.80;;;;;;;20.82;41.74;101537.97;20627390;28;20078;-68
2023/04/10 07:34:01;;;;;;;21.75;18.33;;;;;;;20.93;41.79;101524.31;20652109;28;20057;-66
2023/04/10 07:44:02;;;;;;;20.48;17.30;;;;;;;21.07;41.77;101506.78;20647312;28;20077;-69
2023/04/10 07:54:04;;;;;;;23.63;19.52;;;;;;;21.24;41.48;101486.25;20622567;28;20073;-68
2023/04/10 08:04:06;;;;;;;21.38;18.55;;;;;;;21.39;41.34;101472.25;20655347;28;20050;-68
2023/04/10 08:14:07;;;;;;;16.88;14.77;;;;;;;21.63;41.11;101447.38;20657470;28;20101;-69
2023/04/10 08:24:09;;;;;;;18.95;16.40;;;;;;;21.80;40.88;101447.63;20650832;28;20113;-68
2023/04/10 08:34:12;;;;;;;17.23;15.05;;;;;;;21.92;40.65;101413.94;20643906;28;20046;-69
2023/04/10 08:44:13;;;;;;;16.65;14.60;;;;;;;21.97;40.42;101419.75;20639921;28;20053;-69
2023/04/10 08:54:28;;;;;;;17.65;14.40;;;;;;;21.99;40.42;101400.59;20632159;28;20059;-69
2023/04/10 09:04:30;;;;;;;14.85;13.00;;;;;;;22.02;40.20;101395.75;20614256;28;20069;-68
2023/04/10 09:14:34;;;;;;;14.52;12.50;;;;;;;22.09;40.30;101378.88;20627975;28;20050;-68
2023/04/10 09:24:37;;;;;;;13.65;12.27;;;;;;;22.13;40.22;101377.56;20627004;28;20061;-68
2023/04/10 09:34:55;;;;;;;13.38;11.55;;;;;;;22.17;40.30;101351.81;20627159;28;20081;-69
2023/04/10 09:44:58;;;;;;;12.32;10.05;;;;;;;22.17;40.13;101341.84;20629214;28;20058;-69
2023/04/10 09:55:03;;;;;;;12.57;11.10;;;;;;;22.17;40.11;101328.28;20626614;28;20478;-69
2023/04/10 10:05:06;;;;;;;12.20;10.50;;;;;;;22.09;40.36;101303.78;20647849;28;20530;-68
2023/04/10 10:15:28;;;;;;;9.85;8.43;;;;;;;22.20;40.10;101282.88;20657564;28;20050;-69
2023/04/10 10:25:33;;;;;;;9.05;7.97;;;;;;;22.21;40.26;101258.31;20667216;28;20070;-70
2023/04/10 10:35:36;;;;;;;7.93;6.90;;;;;;;22.20;39.99;101228.66;20650959;28;20047;-70
2023/04/10 10:45:47;;;;;;;8.80;6.95;;;;;;;22.17;40.04;101225.25;20596828;28;20054;-69
2023/04/10 10:55:49;;;;;;;7.85;7.05;;;;;;;22.14;40.11;101203.88;20637079;28;20057;-68
2023/04/10 11:06:21;;;;;;;8.50;6.55;;;;;;;22.15;40.14;101194.72;20650657;28;20056;-69
2023/04/10 11:16:30;;;;;;;7.20;6.25;;;;;;;22.15;39.94;101170.31;20634099;28;20422;-69
2023/04/10 11:26:34;;;;;;;8.18;5.85;;;;;;;22.10;40.02;101147.41;20628823;28;20073;-69
2023/04/10 11:36:40;;;;;;;;;;;;;;;22.09;40.13;101129.44;20636308;28;20054;-68
2023/04/10 11:46:47;;;;;;;5.13;4.63;;;;;;;22.05;40.32;101104.47;20630849;28;20382;-69
2023/04/10 11:57:04;;;;;;;5.35;4.35;;;;;;;22.03;40.19;101079.38;20651954;28;20054;-68
2023/04/10 12:07:06;;;;;;;5.00;4.50;;;;;;;22.02;40.20;101065.00;20637522;28;20049;-68
2023/04/10 12:17:11;;;;;;;5.03;4.13;;;;;;;22.07;40.23;101053.66;20628984;28;20042;-69
2023/04/10 12:27:25;;;;;;;5.00;3.92;;;;;;;22.10;40.08;101038.94;20636777;28;20046;-69
2023/04/10 12:37:47;;;;;;;3.27;2.93;;;;;;;22.13;40.40;101015.09;20642203;28;20770;-69
2023/04/10 12:47:52;;;;;;;3.70;3.30;;;;;;;22.13;40.45;100989.81;20652893;28;20063;-69
2023/04/10 12:57:55;;;;;;;3.47;2.92;;;;;;;22.14;40.32;100983.38;20643228;28;20058;-69
2023/04/10 13:07:58;;;;;;;2.80;2.40;;;;;;;22.12;40.80;100983.56;20630319;28;20494;-69
2023/04/10 13:17:59;;;;;;;4.43;2.75;;;;;;;22.08;40.94;100955.06;20619528;28;20074;-70
2023/04/10 13:28:10;;;;;;;4.53;3.13;;;;;;;21.79;41.53;100885.84;20624991;28;20590;-72
2023/04/10 13:38:12;;;;;;;3.42;2.63;;;;;;;22.06;41.51;100908.28;20642353;28;20108;-68
2023/04/10 13:48:17;;;;;;;2.55;2.30;;;;;;;22.05;41.92;100873.22;20623959;28;20420;-70
2023/04/10 13:58:25;;;;;;;2.38;2.15;;;;;;;22.02;41.98;100852.69;20636163;28;20137;-72
2023/04/10 14:08:26;;;;;;;2.80;2.40;;;;;;;21.98;41.94;100829.66;20635624;28;20533;-70
2023/04/10 14:18:28;;;;;;;2.47;2.28;;;;;;;21.92;42.16;100803.22;20599568;28;20054;-70
2023/04/10 14:28:30;;;;;;;2.30;2.05;;;;;;;21.87;42.29;100785.59;20661678;28;20046;-69
2023/04/10 14:38:35;;;;;;;2.22;2.03;;;;;;;21.83;42.32;100767.97;20649444;28;20498;-70
2023/04/10 14:48:37;;;;;;;2.00;1.70;;;;;;;21.82;42.47;100755.44;20639086;28;20047;-70
2023/04/10 14:58:39;;;;;;;2.30;1.90;;;;;;;21.80;42.56;100740.34;20657487;28;20046;-71
2023/04/10 15:08:47;;;;;;;2.15;1.95;;;;;;;21.75;42.29;100731.88;20650501;28;20061;-69
2023/04/10 15:18:49;;;;;;;2.28;1.70;;;;;;;21.73;42.38;100730.16;20620645;28;20121;-70
2023/04/10 15:28:51;;;;;;;1.60;1.50;;;;;;;21.67;42.89;100725.41;20627756;28;20070;-70
2023/04/10 15:38:57;;;;;;;1.80;1.70;;;;;;;21.65;43.29;100670.56;20621310;28;20046;-66
2023/04/10 15:48:59;;;;;;;2.83;1.50;;;;;;;21.76;44.66;100641.44;20606369;28;20078;-68
2023/04/10 15:59:01;;;;;;;2.20;2.00;;;;;;;21.85;45.96;100619.59;20618371;28;20050;-70
2023/04/10 16:09:03;;;;;;;2.10;1.90;;;;;;;21.94;47.75;100593.34;20630287;28;20058;-69
2023/04/10 16:19:25;;;;;;;2.05;1.85;;;;;;;22.02;49.71;100603.31;20588696;28;20054;-68
2023/04/10 16:29:28;;;;;;;1.80;1.70;;;;;;;22.06;49.44;100599.25;20574259;28;20050;-68
2023/04/10 16:39:29;;;;;;;2.00;1.80;;;;;;;22.02;48.93;100615.03;20586851;28;20077;-70
2023/04/10 16:49:34;;;;;;;2.20;2.00;;;;;;;21.93;48.61;100616.06;20578123;28;20054;-71
2023/04/10 16:59:41;;;;;;;2.38;1.90;;;;;;;21.87;49.66;100617.56;20573051;28;20388;-69
2023/04/10 17:09:42;;;;;;;3.45;2.05;;;;;;;21.82;49.84;100614.53;20587928;28;20046;-69
2023/04/10 17:19:48;;;;;;;2.65;2.10;;;;;;;21.77;50.02;100554.56;20621787;28;20049;-69
2023/04/10 17:29:49;;;;;;;2.38;1.90;;;;;;;21.72;50.11;100533.41;20613284;28;21639;-68
2023/04/10 17:39:53;;;;;;;2.83;2.20;;;;;;;21.69;50.51;100527.50;20610568;28;20042;-67
2023/04/10 17:49:54;;;;;;;2.43;1.93;;;;;;;21.65;50.59;100508.03;20604161;28;20057;-68
2023/04/10 17:59:56;;;;;;;2.83;1.77;;;;;;;21.65;50.32;100520.69;20630426;28;20050;-68
2023/04/10 18:09:57;;;;;;;2.83;2.20;;;;;;;21.64;50.19;100532.56;20633696;28;20488;-68
2023/04/10 18:20:01;;;;;;;2.77;2.20;;;;;;;21.63;50.29;100549.78;20643782;28;20050;-68
2023/04/10 18:30:07;;;;;;;2.65;2.15;;;;;;;21.61;50.29;100543.69;20617590;28;20123;-68
2023/04/10 18:40:09;;;;;;;2.55;2.35;;;;;;;21.57;50.41;100511.53;20638795;28;20434;-67
2023/04/10 18:50:17;;;;;;;3.70;2.92;;;;;;;21.55;50.44;100489.19;20613818;28;20054;-67
2023/04/10 19:00:20;;;;;;;2.72;2.53;;;;;;;21.51;50.43;100459.94;20642304;28;20055;-67
2023/04/10 19:10:21;;;;;;;3.05;2.53;;;;;;;21.42;50.57;100446.38;20639530;28;20054;-67
2023/04/10 19:20:24;;;;;;;2.90;2.60;;;;;;;21.36;50.75;100430.00;20660990;28;20054;-67
2023/04/10 19:30:48;;;;;;;3.85;2.72;;;;;;;21.30;50.81;100448.59;20648459;28;20081;-67
2023/04/10 19:40:50;;;;;;;4.18;3.22;;;;;;;21.24;50.98;100441.19;20661415;28;20042;-68
2023/04/10 19:50:56;;;;;;;4.88;3.03;;;;;;;21.20;50.96;100420.00;20653283;28;20054;-67
2023/04/10 20:01:09;;;;;;;3.20;2.70;;;;;;;21.14;51.18;100426.94;20645556;28;20051;-67
2023/04/10 20:11:12;;;;;;;3.50;2.55;;;;;;;21.12;51.22;100428.97;20650870;28;20073;-67
2023/04/10 20:21:14;;;;;;;3.00;2.70;;;;;;;21.09;50.93;100353.53;20639846;28;20046;-67
2023/04/10 20:31:18;;;;;;;3.60;2.60;;;;;;;21.06;51.18;100362.00;20646974;28;20100;-67
2023/04/10 20:41:21;;;;;;;3.40;2.60;;;;;;;21.04;51.18;100377.56;20644392;28;20691;-67
2023/04/10 20:51:35;;;;;;;3.13;2.22;;;;;;;21.01;51.27;100379.59;20644640;28;20053;-67
2023/04/10 21:01:40;;;;;;;2.47;2.15;;;;;;;21.01;51.17;100349.81;20615197;28;20133;-67
2023/04/10 21:11:44;;;;;;;2.65;2.03;;;;;;;20.99;51.16;100349.16;20637059;28;20046;-67
2023/04/10 21:21:47;;;;;;;2.60;1.90;;;;;;;20.96;51.15;100338.66;20654652;28;20062;-67
2023/04/10 21:31:49;;;;;;;2.53;1.85;;;;;;;20.94;51.19;100329.88;20654681;28;20046;-67
2023/04/10 21:42:01;;;;;;;2.00;1.60;;;;;;;20.93;51.18;100324.63;20654684;28;20121;-67
2023/04/10 21:52:05;;;;;;;3.08;1.80;;;;;;;20.91;51.21;100330.22;20663873;28;20054;-67
2023/04/10 22:02:09;;;;;;;2.28;1.70;;;;;;;20.89;51.26;100332.25;20669049;28;20057;-67
2023/04/10 22:12:13;;;;;;;1.65;1.38;;;;;;;20.88;51.19;100318.88;20668178;28;20058;-67
2023/04/10 22:22:19;;;;;;;1.65;1.52;;;;;;;20.83;51.23;100314.84;20667761;28;20058;-67
2023/04/10 22:32:21;;;;;;;2.25;1.38;;;;;;;20.80;51.22;100295.41;20666921;28;20137;-67
2023/04/10 22:42:23;;;;;;;1.92;1.33;;;;;;;20.76;51.09;100266.94;20666345;28;20086;-67
2023/04/10 22:52:24;;;;;;;1.65;1.20;;;;;;;20.73;51.17;100258.16;20665376;28;20129;-67
2023/04/10 23:02:27;;;;;;;1.40;1.10;;;;;;;20.71;51.11;100253.94;20663906;28;20050;-67
2023/04/10 23:12:29;;;;;;;1.83;1.30;;;;;;;20.69;51.14;100213.53;20664105;28;20141;-67
2023/04/10 23:22:30;;;;;;;1.45;1.05;;;;;;;20.65;51.11;100331.19;20661176;28;20054;-67
2023/04/10 23:32:32;;;;;;;1.20;1.00;;;;;;;20.63;50.55;100354.84;20658931;28;20392;-67
2023/04/10 23:42:34;;;;;;;1.77;1.13;;;;;;;20.60;50.15;100382.25;20661416;28;20047;-67
2023/04/10 23:52:35;;;;;;;1.30;0.80;;;;;;;20.57;49.96;100380.72;20660776;28;20416;-67
